Time;durP1;ratioP1;P1;durP2;ratioP2;P2;SDS_P1;SDS_P2;PMS_P1;PMS_P2;Temp;Humidity;BMP_temperature;BMP_pressure;BME280_temperature;BME280_humidity;BME280_pressure;Samples;Min_cycle;Max_cycle;Signal;HPM_P1;HPM_P2
2023/07/07 03:01:54;;;;;;;3.30;2.58;;;25.40;36.80;;;;;;5277596;23;45793;-57
2023/07/07 03:04:20;;;;;;;2.90;2.60;;;25.40;36.90;;;;;;4963939;28;45360;-59
2023/07/07 03:06:47;;;;;;;4.73;2.60;;;25.30;36.80;;;;;;4949433;28;45511;-59
2023/07/07 03:09:13;;;;;;;4.45;2.47;;;25.30;36.80;;;;;;4929052;28;45445;-59
2023/07/07 03:11:38;;;;;;;4.47;3.00;;;25.30;36.90;;;;;;4955579;28;45962;-59
2023/07/07 03:14:05;;;;;;;3.60;2.70;;;25.30;36.80;;;;;;4946878;28;45319;-59
2023/07/07 03:16:31;;;;;;;4.85;2.60;;;25.30;36.80;;;;;;4929173;28;44998;-58
2023/07/07 03:18:58;;;;;;;4.97;2.45;;;25.30;36.70;;;;;;4952551;28;46124;-59
2023/07/07 03:21:24;;;;;;;3.65;2.55;;;25.30;36.70;;;;;;4937579;28;45992;-59
2023/07/07 03:23:53;;;;;;;3.17;2.50;;;25.30;36.70;;;;;;4948468;28;45599;-59
2023/07/07 03:26:19;;;;;;;4.03;2.50;;;25.30;36.70;;;;;;4961761;28;45622;-59
2023/07/07 03:28:44;;;;;;;3.53;2.22;;;25.20;36.70;;;;;;4951679;28;45050;-61
2023/07/07 03:31:14;;;;;;;2.60;2.40;;;25.30;36.70;;;;;;4941746;28;45336;-59
2023/07/07 03:33:41;;;;;;;3.70;2.40;;;25.20;36.70;;;;;;4962543;28;45878;-59
2023/07/07 03:36:09;;;;;;;3.90;2.50;;;25.20;36.70;;;;;;4941961;28;44952;-60
2023/07/07 03:38:39;;;;;;;3.10;2.20;;;25.20;36.70;;;;;;4951771;28;45345;-59
2023/07/07 03:41:05;;;;;;;3.83;2.30;;;25.20;36.70;;;;;;4933992;28;45499;-59
2023/07/07 03:43:33;;;;;;;3.08;2.10;;;25.20;37.30;;;;;;4946845;28;45111;-60
2023/07/07 03:46:00;;;;;;;4.10;2.33;;;25.20;36.80;;;;;;4942264;28;45614;-62
2023/07/07 03:48:26;;;;;;;2.88;2.30;;;25.20;36.80;;;;;;4938582;28;45393;-58
2023/07/07 03:50:56;;;;;;;4.90;2.30;;;25.20;36.90;;;;;;4933542;28;46213;-59
2023/07/07 03:53:21;;;;;;;2.83;2.10;;;25.10;36.90;;;;;;4952962;28;44779;-59
2023/07/07 03:55:47;;;;;;;4.17;2.37;;;25.10;36.90;;;;;;4942230;28;45265;-59
2023/07/07 03:58:12;;;;;;;4.17;2.50;;;25.10;36.90;;;;;;4954577;28;45602;-60
2023/07/07 04:00:38;;;;;;;3.70;2.17;;;25.00;36.90;;;;;;4939773;28;45885;-60
2023/07/07 04:03:03;;;;;;;3.80;2.80;;;25.10;37.00;;;;;;4958545;28;45254;-59
2023/07/07 04:05:29;;;;;;;3.55;2.40;;;25.00;36.90;;;;;;4941791;28;45565;-59
2023/07/07 04:07:54;;;;;;;2.93;2.37;;;25.10;37.00;;;;;;4954334;28;45729;-58
2023/07/07 04:10:20;;;;;;;3.40;2.37;;;25.00;37.00;;;;;;4948530;28;46851;-63
2023/07/07 04:12:45;;;;;;;3.10;2.50;;;25.00;37.10;;;;;;4937695;28;45279;-59
2023/07/07 04:15:11;;;;;;;3.37;2.23;;;25.00;37.10;;;;;;4938691;28;45115;-60
2023/07/07 04:17:36;;;;;;;4.95;2.45;;;25.00;37.70;;;;;;4942069;28;44938;-60
2023/07/07 04:20:05;;;;;;;3.33;2.40;;;25.10;37.20;;;;;;4939857;28;46028;-61
2023/07/07 04:22:31;;;;;;;3.80;2.40;;;25.00;37.10;;;;;;4947517;28;45582;-59
2023/07/07 04:25:10;;;;;;;2.75;2.17;;;25.00;37.20;;;;;;4955430;28;44655;-66
2023/07/07 04:27:35;;;;;;;2.67;2.20;;;25.00;37.30;;;;;;4944818;28;45763;-59
2023/07/07 04:30:01;;;;;;;2.85;2.30;;;24.90;37.30;;;;;;4945087;28;46204;-59
2023/07/07 04:32:30;;;;;;;3.15;2.22;;;25.00;37.40;;;;;;4916836;28;45218;-59
2023/07/07 04:34:55;;;;;;;2.87;2.20;;;24.90;37.40;;;;;;4951079;28;45702;-62
2023/07/07 04:37:21;;;;;;;2.97;2.33;;;25.00;37.50;;;;;;4935203;28;45527;-60
2023/07/07 04:39:49;;;;;;;3.53;2.33;;;25.00;37.60;;;;;;4951126;28;46852;-61
2023/07/07 04:42:14;;;;;;;3.20;2.30;;;24.90;37.50;;;;;;4962887;28;45078;-60
2023/07/07 04:44:40;;;;;;;2.90;2.40;;;25.00;37.60;;;;;;4952320;28;45067;-60
2023/07/07 04:47:05;;;;;;;3.20;2.42;;;24.90;37.70;;;;;;4948231;28;45339;-61
2023/07/07 04:49:31;;;;;;;4.20;2.50;;;25.00;37.80;;;;;;4944623;28;45681;-59
2023/07/07 04:51:56;;;;;;;2.73;2.23;;;25.00;37.90;;;;;;4947240;28;44895;-59
2023/07/07 04:54:22;;;;;;;4.43;2.43;;;25.00;37.90;;;;;;4954603;28;45663;-58
2023/07/07 04:56:48;;;;;;;3.90;2.80;;;25.00;38.00;;;;;;4947330;28;45279;-60
2023/07/07 04:59:13;;;;;;;4.00;2.20;;;25.00;38.00;;;;;;4947839;28;46008;-59
2023/07/07 05:01:40;;;;;;;2.90;2.30;;;25.00;38.10;;;;;;4937841;28;45830;-60
2023/07/07 05:04:06;;;;;;;3.10;2.60;;;25.00;38.20;;;;;;4959504;28;44994;-59
2023/07/07 05:06:34;;;;;;;2.70;2.20;;;25.00;38.30;;;;;;4950422;28;45258;-58
2023/07/07 05:09:01;;;;;;;4.53;2.60;;;25.00;38.30;;;;;;4945460;28;46238;-60
2023/07/07 05:11:27;;;;;;;3.17;2.33;;;25.00;38.40;;;;;;4930437;28;46078;-60
2023/07/07 05:13:53;;;;;;;3.95;2.50;;;25.00;38.40;;;;;;4953640;28;45653;-60
2023/07/07 05:16:20;;;;;;;3.85;2.75;;;25.00;38.30;;;;;;4920729;28;45753;-60
2023/07/07 05:18:46;;;;;;;3.90;2.67;;;25.00;38.40;;;;;;4944711;28;46176;-60
2023/07/07 05:21:12;;;;;;;4.10;2.57;;;25.00;38.40;;;;;;4923677;28;45765;-60
2023/07/07 05:23:38;;;;;;;4.03;2.50;;;25.10;39.10;;;;;;4946812;28;45383;-59
2023/07/07 05:26:03;;;;;;;3.65;2.65;;;25.10;38.40;;;;;;4946025;28;45488;-58
2023/07/07 05:28:29;;;;;;;3.70;2.80;;;25.10;38.40;;;;;;4961669;28;46312;-58
2023/07/07 05:30:54;;;;;;;3.65;2.80;;;25.20;38.60;;;;;;4921297;28;45838;-60
2023/07/07 05:33:20;;;;;;;3.72;2.60;;;25.20;38.50;;;;;;4943160;28;45522;-59
2023/07/07 05:35:51;;;;;;;4.10;2.70;;;25.20;38.40;;;;;;4970928;28;45376;-60
2023/07/07 05:38:17;;;;;;;6.22;3.03;;;25.20;38.50;;;;;;4941687;28;45965;-60
2023/07/07 05:40:45;;;;;;;3.05;2.58;;;25.30;38.60;;;;;;4963031;28;45318;-61
2023/07/07 05:43:13;;;;;;;4.77;2.60;;;25.30;38.50;;;;;;4946197;28;45525;-61
2023/07/07 05:45:39;;;;;;;3.20;2.67;;;25.40;38.40;;;;;;4938077;28;44912;-63
2023/07/07 05:48:05;;;;;;;2.85;2.55;;;25.30;38.40;;;;;;4935439;28;47375;-62
2023/07/07 05:50:31;;;;;;;4.18;2.80;;;25.40;38.40;;;;;;4936437;28;45698;-63
2023/07/07 05:52:57;;;;;;;3.75;2.55;;;25.40;38.20;;;;;;4967664;28;45545;-62
2023/07/07 05:55:28;;;;;;;4.30;2.30;;;25.50;38.10;;;;;;4950944;28;45494;-61
2023/07/07 05:57:54;;;;;;;4.63;2.40;;;25.60;38.00;;;;;;4968321;28;46078;-62
2023/07/07 06:00:20;;;;;;;3.08;2.22;;;25.60;38.00;;;;;;4935562;28;45371;-60
2023/07/07 06:02:46;;;;;;;3.83;2.43;;;25.70;37.90;;;;;;4948902;28;45790;-61
2023/07/07 06:05:11;;;;;;;3.70;2.50;;;25.80;37.80;;;;;;4944443;28;45630;-61
2023/07/07 06:07:37;;;;;;;4.43;2.30;;;25.80;37.80;;;;;;4942825;28;46055;-61
2023/07/07 06:10:07;;;;;;;3.60;2.60;;;25.80;37.60;;;;;;4948890;28;45609;-62
2023/07/07 06:12:35;;;;;;;6.63;2.50;;;25.90;37.30;;;;;;4939050;28;45587;-61
2023/07/07 06:15:01;;;;;;;3.45;2.47;;;25.90;37.40;;;;;;4943866;28;45573;-61
2023/07/07 06:17:26;;;;;;;3.97;2.30;;;25.90;37.30;;;;;;4937149;28;46240;-61
2023/07/07 06:19:52;;;;;;;3.67;2.33;;;25.90;37.30;;;;;;4954957;28;45755;-61
2023/07/07 06:22:17;;;;;;;4.97;2.47;;;25.90;37.30;;;;;;4940855;28;45470;-61
2023/07/07 06:24:43;;;;;;;3.47;2.30;;;26.00;37.30;;;;;;4953584;28;44756;-60
2023/07/07 06:27:09;;;;;;;2.83;2.08;;;26.00;37.30;;;;;;4942509;28;46764;-62
2023/07/07 06:29:35;;;;;;;3.73;2.13;;;26.00;37.30;;;;;;4947148;28;45212;-60
2023/07/07 06:32:01;;;;;;;4.43;2.30;;;26.00;37.30;;;;;;4938304;28;45654;-61
2023/07/07 06:34:27;;;;;;;3.37;2.20;;;26.00;37.30;;;;;;4942947;28;45448;-60
2023/07/07 06:36:52;;;;;;;3.78;2.40;;;26.00;37.30;;;;;;4942183;28;48308;-60
2023/07/07 06:39:18;;;;;;;3.10;2.30;;;26.00;37.30;;;;;;4952329;28;45191;-60
2023/07/07 06:41:43;;;;;;;3.93;2.33;;;26.10;37.30;;;;;;4945250;28;45158;-61
2023/07/07 06:44:09;;;;;;;5.00;2.60;;;26.10;37.20;;;;;;4946440;28;45244;-61
2023/07/07 06:46:35;;;;;;;3.43;2.40;;;26.10;37.20;;;;;;4927199;28;45893;-60
2023/07/07 06:49:02;;;;;;;2.92;2.33;;;26.20;37.30;;;;;;4950943;28;45895;-60
2023/07/07 06:51:28;;;;;;;4.95;2.30;;;26.20;37.30;;;;;;4945724;28;45475;-61
2023/07/07 06:53:54;;;;;;;3.58;2.28;;;26.30;37.20;;;;;;4951781;28;45209;-60
2023/07/07 06:56:19;;;;;;;3.30;2.20;;;26.30;37.10;;;;;;4944200;28;45890;-62
2023/07/07 06:58:45;;;;;;;3.40;2.22;;;26.30;37.10;;;;;;4945386;28;44967;-61
2023/07/07 07:01:11;;;;;;;5.13;2.40;;;26.40;37.20;;;;;;4938436;28;45024;-60
2023/07/07 07:03:37;;;;;;;4.43;2.30;;;26.40;37.10;;;;;;4966576;28;45181;-59
2023/07/07 07:06:03;;;;;;;4.77;2.43;;;26.50;37.10;;;;;;4939395;28;45313;-61
2023/07/07 07:08:28;;;;;;;2.40;2.17;;;26.50;37.00;;;;;;4918290;28;45634;-59
2023/07/07 07:10:54;;;;;;;5.43;2.40;;;26.50;36.90;;;;;;4946111;28;45410;-60
2023/07/07 07:13:19;;;;;;;2.97;2.50;;;26.50;36.80;;;;;;4946048;28;45511;-61
2023/07/07 07:15:45;;;;;;;4.10;2.60;;;26.60;36.70;;;;;;4942852;28;46294;-61
2023/07/07 07:18:12;;;;;;;3.92;2.47;;;26.60;36.70;;;;;;4942926;28;44802;-60
2023/07/07 07:20:38;;;;;;;3.50;2.60;;;26.70;36.70;;;;;;4931942;28;45598;-60
2023/07/07 07:23:04;;;;;;;5.30;2.70;;;26.70;36.70;;;;;;4935487;28;46226;-61
2023/07/07 07:25:29;;;;;;;3.53;2.50;;;26.70;36.60;;;;;;4954100;28;45456;-60
2023/07/07 07:27:55;;;;;;;4.07;2.50;;;26.70;36.50;;;;;;4942852;28;45216;-61
2023/07/07 07:30:20;;;;;;;4.40;2.50;;;26.80;36.50;;;;;;4925652;28;44912;-62
2023/07/07 07:32:46;;;;;;;4.37;2.70;;;26.80;36.50;;;;;;4952306;28;45383;-61
2023/07/07 07:35:12;;;;;;;5.03;2.80;;;26.80;36.50;;;;;;4947592;28;46000;-60
2023/07/07 07:37:38;;;;;;;4.25;2.50;;;26.90;36.50;;;;;;4933069;28;45315;-61
2023/07/07 07:40:04;;;;;;;3.33;2.50;;;26.90;36.50;;;;;;4951637;28;45015;-61
2023/07/07 07:42:30;;;;;;;3.37;2.60;;;26.90;36.40;;;;;;4969119;28;46145;-61
2023/07/07 07:44:55;;;;;;;4.27;2.90;;;27.00;36.50;;;;;;4948552;28;46265;-60
2023/07/07 07:47:21;;;;;;;4.60;2.73;;;27.00;36.50;;;;;;4938119;28;44722;-61
2023/07/07 07:49:47;;;;;;;4.00;3.20;;;27.00;36.50;;;;;;4951367;28;45541;-60
2023/07/07 07:52:12;;;;;;;4.20;3.30;;;27.00;36.50;;;;;;4940551;28;45605;-60
2023/07/07 07:54:38;;;;;;;5.30;3.17;;;27.00;36.40;;;;;;4948847;28;46178;-59
2023/07/07 07:57:04;;;;;;;5.30;3.28;;;27.10;36.30;;;;;;4949645;28;46058;-59
2023/07/07 07:59:29;;;;;;;4.57;3.20;;;27.20;36.40;;;;;;4945877;28;45371;-59
2023/07/07 08:01:55;;;;;;;5.40;3.23;;;27.20;36.30;;;;;;4941093;28;45287;-60
2023/07/07 08:04:20;;;;;;;4.27;3.37;;;27.20;36.40;;;;;;4954180;28;45894;-60
2023/07/07 08:06:50;;;;;;;5.50;3.20;;;27.30;36.40;;;;;;4941983;28;45396;-60
2023/07/07 08:09:15;;;;;;;5.90;3.40;;;27.30;36.40;;;;;;4952528;28;45352;-61
2023/07/07 08:11:41;;;;;;;5.78;3.53;;;27.30;36.40;;;;;;4951561;28;45875;-60
2023/07/07 08:14:30;;;;;;;5.93;3.33;;;27.40;36.40;;;;;;4947396;28;45169;-60
2023/07/07 08:16:57;;;;;;;5.60;3.58;;;27.40;36.30;;;;;;4942384;28;45320;-60
2023/07/07 08:19:23;;;;;;;4.43;3.20;;;27.40;36.30;;;;;;4950789;28;46062;-61
2023/07/07 08:21:48;;;;;;;6.77;3.67;;;27.50;36.40;;;;;;4942919;28;46260;-60
2023/07/07 08:24:14;;;;;;;6.45;3.60;;;27.50;36.40;;;;;;4953515;28;46158;-61
2023/07/07 08:26:40;;;;;;;5.90;3.80;;;27.50;36.40;;;;;;4938154;28;45239;-61
2023/07/07 08:29:06;;;;;;;6.68;3.58;;;27.50;36.40;;;;;;4947768;28;45248;-59
2023/07/07 08:31:32;;;;;;;5.15;3.45;;;27.60;36.30;;;;;;4959897;28;45408;-58
2023/07/07 08:33:57;;;;;;;6.07;3.87;;;27.60;36.30;;;;;;4953102;28;45923;-60
2023/07/07 08:36:23;;;;;;;8.27;3.40;;;27.70;36.20;;;;;;4928040;28;45317;-57
2023/07/07 08:38:48;;;;;;;6.68;3.70;;;27.70;36.10;;;;;;4952175;28;45528;-60
2023/07/07 08:41:14;;;;;;;5.78;3.75;;;27.80;36.10;;;;;;4935494;28;45271;-63
2023/07/07 08:43:39;;;;;;;4.77;3.53;;;27.80;36.00;;;;;;4917464;28;46309;-62
2023/07/07 08:46:22;;;;;;;5.20;3.30;;;27.80;35.80;;;;;;4933418;28;45334;-62
2023/07/07 08:49:09;;;;;;;6.93;3.65;;;27.90;35.70;;;;;;4931862;28;45559;-62
2023/07/07 08:51:37;;;;;;;5.37;3.07;;;28.00;35.40;;;;;;4960351;28;45619;-62
2023/07/07 08:54:08;;;;;;;6.32;3.70;;;28.10;35.30;;;;;;4955354;28;45658;-61
2023/07/07 08:56:39;;;;;;;4.60;3.28;;;28.20;35.10;;;;;;4966090;28;45103;-61
2023/07/07 08:59:25;;;;;;;4.30;3.53;;;28.30;34.70;;;;;;4951176;28;46490;-61
2023/07/07 09:02:05;;;;;;;3.95;3.38;;;28.40;34.50;;;;;;4947633;28;45923;-62
2023/07/07 09:04:37;;;;;;;7.03;3.50;;;28.50;34.20;;;;;;4947393;28;46200;-61
2023/07/07 09:07:27;;;;;;;4.47;3.80;;;28.50;33.70;;;;;;4937195;28;45140;-62
2023/07/07 09:10:14;;;;;;;4.67;3.40;;;28.60;33.40;;;;;;4934936;28;45668;-61
2023/07/07 09:12:45;;;;;;;5.10;3.30;;;28.60;32.90;;;;;;4926258;28;45578;-60
2023/07/07 09:15:23;;;;;;;4.65;3.30;;;28.70;32.80;;;;;;4956920;28;46256;-60
2023/07/07 09:17:54;;;;;;;6.88;3.40;;;28.70;32.40;;;;;;4944679;28;45359;-62
2023/07/07 09:20:20;;;;;;;4.97;3.47;;;28.70;32.10;;;;;;4953472;28;45767;-61
2023/07/07 09:22:55;;;;;;;4.20;3.47;;;28.70;32.00;;;;;;4935199;28;45390;-61
2023/07/07 09:25:32;;;;;;;4.10;3.17;;;28.70;31.90;;;;;;4959787;28;46879;-61
2023/07/07 09:28:00;;;;;;;5.87;3.10;;;28.70;31.70;;;;;;4943961;28;45713;-60
2023/07/07 09:30:52;;;;;;;4.88;3.83;;;28.70;31.40;;;;;;4926724;28;45473;-60
2023/07/07 09:33:19;;;;;;;5.55;3.60;;;28.80;30.90;;;;;;4944223;28;45290;-62
2023/07/07 09:36:09;;;;;;;7.30;3.95;;;28.80;30.70;;;;;;4952550;28;46140;-60
2023/07/07 09:38:56;;;;;;;4.43;3.58;;;28.90;30.40;;;;;;4932789;28;45288;-61
2023/07/07 09:41:31;;;;;;;5.20;3.97;;;28.80;29.90;;;;;;4960239;28;45391;-61
2023/07/07 09:44:03;;;;;;;4.60;4.03;;;28.90;29.60;;;;;;4926903;28;45491;-60
2023/07/07 09:46:37;;;;;;;5.80;3.97;;;28.90;29.30;;;;;;4921337;28;46358;-60
2023/07/07 09:49:15;;;;;;;4.20;3.40;;;28.90;29.50;;;;;;4947513;28;46772;-62
2023/07/07 09:51:55;;;;;;;6.10;3.75;;;28.90;29.40;;;;;;4920720;28;45495;-61
2023/07/07 09:54:20;;;;;;;4.45;3.90;;;28.90;29.30;;;;;;4944541;28;45489;-61
2023/07/07 09:57:04;;;;;;;4.47;3.60;;;29.00;29.30;;;;;;4903716;28;45385;-60
2023/07/07 09:59:35;;;;;;;4.80;3.63;;;29.00;29.20;;;;;;4956919;28;45410;-61
2023/07/07 10:02:00;;;;;;;4.95;3.63;;;29.10;29.10;;;;;;4920054;28;45404;-60
2023/07/07 10:04:26;;;;;;;4.20;3.25;;;29.10;28.90;;;;;;4913274;28;45142;-61
2023/07/07 10:06:57;;;;;;;5.43;3.72;;;29.10;28.80;;;;;;4952823;28;45624;-61
2023/07/07 10:09:23;;;;;;;5.25;4.03;;;29.10;28.80;;;;;;4969188;28;45364;-61
2023/07/07 10:11:48;;;;;;;6.10;3.65;;;29.20;28.80;;;;;;4927547;28;45520;-61
2023/07/07 10:14:15;;;;;;;4.82;3.70;;;29.20;28.80;;;;;;4919674;28;45590;-62
2023/07/07 10:17:09;;;;;;;7.18;3.92;;;29.20;28.80;;;;;;4911935;28;45539;-62
2023/07/07 10:20:07;;;;;;;4.50;3.67;;;29.20;28.70;;;;;;4931756;28;45635;-62
2023/07/07 10:22:35;;;;;;;4.20;3.77;;;29.30;28.60;;;;;;4941590;28;45256;-61
2023/07/07 10:25:03;;;;;;;5.90;3.80;;;29.20;28.60;;;;;;4933569;28;45470;-61
2023/07/07 10:27:29;;;;;;;5.65;3.50;;;29.30;28.80;;;;;;4916640;28;45092;-62
2023/07/07 10:30:03;;;;;;;5.68;3.80;;;29.20;28.80;;;;;;4939802;28;45240;-62
2023/07/07 10:32:35;;;;;;;5.50;3.60;;;29.30;28.70;;;;;;4922793;28;45670;-59
2023/07/07 10:35:02;;;;;;;6.50;3.63;;;29.30;28.70;;;;;;4936975;28;44908;-60
2023/07/07 10:37:30;;;;;;;5.47;3.60;;;29.40;28.80;;;;;;4925231;28;45562;-62
2023/07/07 10:39:57;;;;;;;5.22;3.40;;;29.40;28.70;;;;;;4936225;28;44959;-61
2023/07/07 10:42:26;;;;;;;3.92;3.35;;;29.40;28.60;;;;;;4929756;28;45333;-60
2023/07/07 10:44:56;;;;;;;5.20;3.55;;;29.50;28.50;;;;;;4932177;28;44961;-60
2023/07/07 10:47:30;;;;;;;4.85;3.33;;;29.50;28.40;;;;;;4940522;28;46393;-58
2023/07/07 10:49:58;;;;;;;4.60;3.75;;;29.50;28.20;;;;;;4937150;28;45754;-62
2023/07/07 10:52:46;;;;;;;5.78;3.25;;;29.50;28.10;;;;;;4921529;28;45497;-60
2023/07/07 10:55:31;;;;;;;5.25;3.55;;;29.50;27.90;;;;;;4933092;28;45965;-59
2023/07/07 10:58:25;;;;;;;3.80;3.40;;;29.60;27.80;;;;;;4949294;28;46519;-60
2023/07/07 11:00:57;;;;;;;4.87;3.57;;;29.60;28.10;;;;;;4907348;28;45510;-62
2023/07/07 11:03:51;;;;;;;4.40;3.50;;;29.60;27.90;;;;;;4945734;28;45744;-61
2023/07/07 11:06:22;;;;;;;5.32;3.45;;;29.70;28.10;;;;;;4923423;28;45594;-59
2023/07/07 11:09:01;;;;;;;3.60;3.20;;;29.60;27.80;;;;;;4936011;28;45507;-61
2023/07/07 11:11:51;;;;;;;3.83;3.22;;;29.70;27.90;;;;;;4908697;28;45428;-61
2023/07/07 11:14:30;;;;;;;3.47;2.95;;;29.70;27.70;;;;;;4925576;28;45094;-61
2023/07/07 11:17:11;;;;;;;5.40;3.50;;;29.70;27.50;;;;;;4923749;28;45759;-61
2023/07/07 11:20:01;;;;;;;5.00;3.47;;;29.70;27.40;;;;;;4950339;28;45288;-62
2023/07/07 11:22:58;;;;;;;4.57;3.70;;;29.80;27.30;;;;;;4937122;28;45045;-61
2023/07/07 11:25:46;;;;;;;4.47;3.35;;;29.80;27.20;;;;;;4945259;28;45256;-63
2023/07/07 11:28:14;;;;;;;3.67;3.30;;;29.90;27.30;;;;;;4932651;28;45338;-60
2023/07/07 11:30:53;;;;;;;3.80;3.20;;;29.90;27.40;;;;;;4924956;28;45697;-63
2023/07/07 11:33:29;;;;;;;5.00;3.15;;;29.90;27.30;;;;;;4933031;28;45510;-62
2023/07/07 11:36:03;;;;;;;4.63;3.70;;;29.80;27.20;;;;;;4923910;28;44649;-62
2023/07/07 11:38:43;;;;;;;4.03;3.33;;;29.90;27.20;;;;;;4966139;28;44890;-61
2023/07/07 11:41:31;;;;;;;4.32;3.50;;;29.90;27.00;;;;;;4929992;28;46064;-62
2023/07/07 11:43:56;;;;;;;4.32;3.45;;;29.90;27.10;;;;;;4929002;28;45359;-61
2023/07/07 11:46:45;;;;;;;3.80;3.40;;;30.00;27.10;;;;;;4929180;28;45943;-60
2023/07/07 11:49:29;;;;;;;3.97;3.30;;;30.00;27.10;;;;;;4930926;28;45470;-60
2023/07/07 11:52:09;;;;;;;3.77;3.37;;;30.00;27.30;;;;;;4924035;28;45501;-61
2023/07/07 11:54:42;;;;;;;4.22;3.22;;;30.00;27.20;;;;;;4939215;28;45523;-61
2023/07/07 11:57:27;;;;;;;4.75;3.42;;;30.00;26.90;;;;;;4930499;28;45625;-62
2023/07/07 12:00:03;;;;;;;3.70;3.30;;;30.00;26.90;;;;;;4928481;28;45179;-62
2023/07/07 12:02:36;;;;;;;3.80;3.50;;;30.00;26.90;;;;;;4903233;28;45758;-61
2023/07/07 12:05:01;;;;;;;4.20;3.38;;;30.10;27.00;;;;;;4957277;28;45486;-60
2023/07/07 12:07:41;;;;;;;3.85;3.17;;;30.10;26.90;;;;;;4919882;28;45525;-61
2023/07/07 12:10:18;;;;;;;4.18;3.72;;;30.10;26.90;;;;;;4943270;28;45188;-63
2023/07/07 12:12:59;;;;;;;4.93;3.40;;;30.10;26.80;;;;;;4925062;28;45616;-62
2023/07/07 12:15:30;;;;;;;4.30;3.40;;;30.10;26.70;;;;;;4955543;28;45532;-62
2023/07/07 12:18:02;;;;;;;4.82;3.35;;;30.10;26.60;;;;;;4945273;28;45710;-60
2023/07/07 12:20:30;;;;;;;4.07;3.40;;;30.20;26.70;;;;;;4922900;28;44969;-61
2023/07/07 12:22:55;;;;;;;3.40;3.10;;;30.20;26.80;;;;;;4944931;28;47430;-61
2023/07/07 12:25:26;;;;;;;4.97;3.40;;;30.20;26.70;;;;;;4944737;28;45634;-62
2023/07/07 12:27:52;;;;;;;6.57;3.30;;;30.20;26.80;;;;;;4928434;28;45627;-62
2023/07/07 12:30:43;;;;;;;3.85;3.20;;;30.20;26.80;;;;;;4923823;28;45513;-61
2023/07/07 12:33:08;;;;;;;4.53;3.50;;;30.20;26.60;;;;;;4945672;28;45069;-60
2023/07/07 12:35:52;;;;;;;4.07;3.10;;;30.20;26.30;;;;;;4936229;28;45247;-62
2023/07/07 12:38:30;;;;;;;4.65;3.42;;;30.30;26.30;;;;;;4947368;28;44892;-62
2023/07/07 12:40:57;;;;;;;3.97;3.58;;;30.30;26.30;;;;;;4928712;28;45716;-60
2023/07/07 12:43:27;;;;;;;4.27;3.13;;;30.30;26.30;;;;;;4943021;28;46178;-60
2023/07/07 12:45:53;;;;;;;3.75;3.30;;;30.30;26.20;;;;;;4939008;28;45559;-62
2023/07/07 12:48:19;;;;;;;3.55;3.15;;;30.30;26.20;;;;;;4946878;28;45251;-59
2023/07/07 12:50:45;;;;;;;4.03;3.10;;;30.30;26.10;;;;;;4939427;28;45312;-60
2023/07/07 12:53:12;;;;;;;3.50;3.20;;;30.40;26.20;;;;;;4964203;28;45685;-59
2023/07/07 12:55:38;;;;;;;3.45;3.15;;;30.40;26.20;;;;;;4943123;28;46038;-61
2023/07/07 12:58:07;;;;;;;5.07;3.60;;;30.40;26.20;;;;;;4925879;28;45457;-61
2023/07/07 13:00:34;;;;;;;4.55;3.35;;;30.40;26.20;;;;;;4923229;28;45306;-61
2023/07/07 13:03:09;;;;;;;3.85;3.20;;;30.40;26.20;;;;;;4939275;28;46744;-60
2023/07/07 13:05:34;;;;;;;4.65;3.63;;;30.40;26.20;;;;;;4927036;28;45706;-60
2023/07/07 13:08:00;;;;;;;4.53;3.50;;;30.40;26.30;;;;;;4956612;28;45514;-61
2023/07/07 13:10:33;;;;;;;3.92;3.10;;;30.40;26.20;;;;;;4947332;28;45189;-59
2023/07/07 13:13:23;;;;;;;3.88;3.47;;;30.40;26.30;;;;;;4949491;28;46425;-61
2023/07/07 13:15:48;;;;;;;4.65;3.38;;;30.40;26.50;;;;;;4968313;28;45773;-59
2023/07/07 13:18:14;;;;;;;3.67;3.25;;;30.40;26.40;;;;;;4944248;28;45503;-60
2023/07/07 13:20:40;;;;;;;4.20;3.22;;;30.40;26.40;;;;;;4927346;28;45448;-60
2023/07/07 13:23:26;;;;;;;5.25;3.45;;;30.50;26.60;;;;;;4939854;28;46106;-62
2023/07/07 13:25:52;;;;;;;6.22;3.50;;;30.50;26.40;;;;;;4935160;28;46229;-60
2023/07/07 13:28:17;;;;;;;4.83;3.20;;;30.50;26.10;;;;;;4945047;28;45125;-61
2023/07/07 13:30:48;;;;;;;4.38;3.47;;;30.50;26.00;;;;;;4924334;28;45991;-65
2023/07/07 13:33:16;;;;;;;4.13;3.03;;;30.60;25.90;;;;;;4970630;28;46270;-62
2023/07/07 13:35:47;;;;;;;4.88;3.33;;;30.60;25.90;;;;;;4927286;28;46342;-61
2023/07/07 13:38:15;;;;;;;4.07;3.00;;;30.60;25.80;;;;;;4953031;28;45539;-61
2023/07/07 13:40:40;;;;;;;3.60;3.22;;;30.60;25.90;;;;;;4960622;28;46313;-62
2023/07/07 13:43:31;;;;;;;3.50;3.20;;;30.60;26.00;;;;;;4915810;28;45401;-63
2023/07/07 13:46:01;;;;;;;4.15;3.50;;;30.60;25.90;;;;;;4927911;28;45263;-61
2023/07/07 13:48:27;;;;;;;3.65;3.30;;;30.60;25.90;;;;;;4953278;28;46042;-61
2023/07/07 13:50:53;;;;;;;4.03;3.30;;;30.60;25.90;;;;;;4940467;28;45465;-62
2023/07/07 13:53:19;;;;;;;4.68;3.30;;;30.60;26.00;;;;;;4948900;28;46207;-62
2023/07/07 13:55:47;;;;;;;4.35;3.45;;;30.70;26.10;;;;;;4939081;28;46591;-62
2023/07/07 13:58:19;;;;;;;3.90;3.33;;;30.70;25.90;;;;;;4975221;28;45509;-62
2023/07/07 14:00:46;;;;;;;4.17;3.30;;;30.70;25.80;;;;;;4967815;28;45423;-61
2023/07/07 14:03:17;;;;;;;4.97;3.50;;;30.70;25.90;;;;;;4944004;28;46596;-61
2023/07/07 14:05:43;;;;;;;3.22;2.92;;;30.70;25.80;;;;;;4935027;28;45509;-61
2023/07/07 14:08:17;;;;;;;3.67;3.23;;;30.70;25.90;;;;;;4942490;28;45267;-60
2023/07/07 14:10:44;;;;;;;4.60;3.33;;;30.70;25.80;;;;;;4947649;28;45609;-62
2023/07/07 14:13:15;;;;;;;5.75;3.35;;;30.70;25.80;;;;;;4951114;28;46104;-61
2023/07/07 14:16:03;;;;;;;4.28;3.30;;;30.70;25.70;;;;;;4962895;28;45179;-62
2023/07/07 14:18:33;;;;;;;6.20;3.20;;;30.70;25.80;;;;;;4951618;28;44801;-60
2023/07/07 14:20:58;;;;;;;5.75;3.40;;;30.70;25.80;;;;;;4938315;28;45296;-59
2023/07/07 14:23:24;;;;;;;4.50;3.50;;;30.70;25.80;;;;;;4943515;28;46686;-59
2023/07/07 14:25:54;;;;;;;5.63;3.20;;;30.80;25.80;;;;;;4967853;28;45885;-59
2023/07/07 14:28:22;;;;;;;3.78;2.90;;;30.80;25.70;;;;;;4952813;28;45258;-60
2023/07/07 14:30:55;;;;;;;4.25;3.00;;;30.70;25.50;;;;;;4937430;28;45172;-60
2023/07/07 14:33:25;;;;;;;3.85;3.15;;;30.80;25.50;;;;;;4938022;28;46370;-58
2023/07/07 14:35:56;;;;;;;3.60;3.03;;;30.80;25.50;;;;;;4918254;28;46365;-60
2023/07/07 14:38:39;;;;;;;9.65;3.30;;;30.80;25.50;;;;;;4954622;28;45275;-59
2023/07/07 14:41:16;;;;;;;6.68;3.50;;;30.80;25.40;;;;;;4937556;28;47097;-60
2023/07/07 14:43:42;;;;;;;4.00;3.00;;;30.80;25.30;;;;;;4974216;28;46399;-59
2023/07/07 14:46:25;;;;;;;4.07;3.38;;;30.80;25.40;;;;;;4934154;28;46099;-60
2023/07/07 14:48:52;;;;;;;5.60;3.20;;;30.80;25.50;;;;;;4927924;28;45423;-59
2023/07/07 14:51:29;;;;;;;3.47;3.17;;;30.80;25.70;;;;;;4936828;28;45445;-60
2023/07/07 14:53:59;;;;;;;4.28;3.10;;;30.80;25.70;;;;;;4943965;28;45868;-60
2023/07/07 14:56:32;;;;;;;4.73;3.30;;;30.80;25.70;;;;;;4936954;28;45649;-64
2023/07/07 14:59:01;;;;;;;5.00;3.17;;;30.80;25.80;;;;;;4940874;28;44920;-64
2023/07/07 15:01:29;;;;;;;5.72;3.08;;;30.90;25.80;;;;;;4932010;28;45646;-64
2023/07/07 15:03:57;;;;;;;3.33;2.83;;;30.90;25.90;;;;;;4936880;28;47104;-63
2023/07/07 15:06:33;;;;;;;4.68;3.13;;;31.00;25.90;;;;;;4940038;28;45513;-63
2023/07/07 15:08:59;;;;;;;3.50;3.20;;;31.00;25.90;;;;;;4942611;28;45058;-58
2023/07/07 15:11:33;;;;;;;3.97;3.17;;;31.00;25.50;;;;;;4927717;28;45120;-59
2023/07/07 15:14:00;;;;;;;4.78;3.50;;;31.00;25.50;;;;;;4947042;28;46020;-59
2023/07/07 15:16:26;;;;;;;5.17;3.30;;;31.00;25.50;;;;;;4931539;28;45539;-59
2023/07/07 15:18:52;;;;;;;4.07;3.38;;;31.00;25.40;;;;;;4918744;28;44822;-58
2023/07/07 15:21:22;;;;;;;3.60;3.15;;;31.00;25.30;;;;;;4940851;28;46603;-61
2023/07/07 15:23:47;;;;;;;3.50;3.20;;;31.00;25.40;;;;;;4950250;28;45297;-59
2023/07/07 15:26:22;;;;;;;3.90;3.33;;;31.00;25.30;;;;;;4946967;28;45445;-57
2023/07/07 15:28:47;;;;;;;5.45;3.20;;;31.00;25.20;;;;;;4959356;28;46155;-59
2023/07/07 15:31:19;;;;;;;4.50;3.42;;;31.10;25.20;;;;;;4938658;28;45515;-57
2023/07/07 15:33:45;;;;;;;5.00;2.97;;;31.10;25.10;;;;;;4921127;28;48041;-59
2023/07/07 15:36:11;;;;;;;5.78;3.42;;;31.10;25.20;;;;;;4938577;28;45328;-61
2023/07/07 15:38:43;;;;;;;4.10;3.20;;;31.20;25.20;;;;;;4958989;28;45099;-57
2023/07/07 15:41:27;;;;;;;6.25;2.90;;;31.10;25.10;;;;;;4958192;28;45236;-60
2023/07/07 15:43:53;;;;;;;3.30;3.00;;;31.20;25.10;;;;;;4950322;28;44890;-54
2023/07/07 15:46:27;;;;;;;5.13;3.03;;;31.10;24.90;;;;;;4947296;28;45251;-57
2023/07/07 15:48:53;;;;;;;3.83;3.20;;;31.10;24.90;;;;;;4964933;28;45371;-59
2023/07/07 15:51:27;;;;;;;4.13;3.27;;;31.10;24.80;;;;;;4946480;28;45074;-58
2023/07/07 15:53:55;;;;;;;4.22;3.10;;;31.20;24.70;;;;;;4970413;28;45484;-58
2023/07/07 15:56:34;;;;;;;3.38;3.08;;;31.10;24.70;;;;;;4944898;28;46308;-58
2023/07/07 15:59:00;;;;;;;4.50;3.10;;;31.10;24.80;;;;;;4947414;28;46728;-59
2023/07/07 16:01:26;;;;;;;4.00;3.30;;;31.10;25.00;;;;;;4942144;28;45326;-58
2023/07/07 16:03:51;;;;;;;3.47;3.10;;;31.10;24.90;;;;;;4963820;28;45887;-58